sensor_id;sensor_type;location;lat;lon;timestamp;temperature;humidity
10468;DHT22;5281;48.878;9.394;2023-07-30T00:02:08;20.20;99.90
10468;DHT22;5281;48.878;9.394;2023-07-30T00:04:35;20.20;99.90
10468;DHT22;5281;48.878;9.394;2023-07-30T00:07:02;20.10;99.90
10468;DHT22;5281;48.878;9.394;2023-07-30T00:09:30;20.10;99.90
10468;DHT22;5281;48.878;9.394;2023-07-30T00:11:56;20.10;99.90
10468;DHT22;5281;48.878;9.394;2023-07-30T00:14:23;20.10;99.90
10468;DHT22;5281;48.878;9.394;2023-07-30T00:16:50;20.00;99.90
10468;DHT22;5281;48.878;9.394;2023-07-30T00:19:17;20.00;99.90
10468;DHT22;5281;48.878;9.394;2023-07-30T00:21:43;20.00;99.90
10468;DHT22;5281;48.878;9.394;2023-07-30T00:24:12;20.00;99.90
10468;DHT22;5281;48.878;9.394;2023-07-30T00:26:40;20.00;99.90
10468;DHT22;5281;48.878;9.394;2023-07-30T00:29:06;20.00;99.90
10468;DHT22;5281;48.878;9.394;2023-07-30T00:31:33;20.00;99.90
10468;DHT22;5281;48.878;9.394;2023-07-30T00:34:00;19.90;99.90
10468;DHT22;5281;48.878;9.394;2023-07-30T00:36:27;20.00;99.90
10468;DHT22;5281;48.878;9.394;2023-07-30T00:38:53;19.90;99.90
10468;DHT22;5281;48.878;9.394;2023-07-30T00:41:20;19.90;99.90
10468;DHT22;5281;48.878;9.394;2023-07-30T00:43:48;20.00;99.90
10468;DHT22;5281;48.878;9.394;2023-07-30T00:46:15;19.90;99.90
10468;DHT22;5281;48.878;9.394;2023-07-30T00:48:42;19.90;99.90
10468;DHT22;5281;48.878;9.394;2023-07-30T00:51:09;19.90;99.90
10468;DHT22;5281;48.878;9.394;2023-07-30T00:53:37;19.90;99.90
10468;DHT22;5281;48.878;9.394;2023-07-30T00:56:04;19.80;99.90
10468;DHT22;5281;48.878;9.394;2023-07-30T00:58:32;19.80;99.90
10468;DHT22;5281;48.878;9.394;2023-07-30T01:01:00;19.80;99.90
10468;DHT22;5281;48.878;9.394;2023-07-30T01:03:27;19.70;99.90
10468;DHT22;5281;48.878;9.394;2023-07-30T01:05:54;19.70;99.90
10468;DHT22;5281;48.878;9.394;2023-07-30T01:08:21;19.60;99.90
10468;DHT22;5281;48.878;9.394;2023-07-30T01:10:48;19.50;99.90
10468;DHT22;5281;48.878;9.394;2023-07-30T01:13:15;19.60;99.90
10468;DHT22;5281;48.878;9.394;2023-07-30T01:15:42;19.70;99.90
10468;DHT22;5281;48.878;9.394;2023-07-30T01:18:11;19.80;99.90
10468;DHT22;5281;48.878;9.394;2023-07-30T01:20:38;19.80;99.90
10468;DHT22;5281;48.878;9.394;2023-07-30T01:23:06;19.90;99.90
10468;DHT22;5281;48.878;9.394;2023-07-30T01:25:36;20.00;99.90
10468;DHT22;5281;48.878;9.394;2023-07-30T01:28:04;20.00;99.90
10468;DHT22;5281;48.878;9.394;2023-07-30T01:30:35;20.10;99.90
10468;DHT22;5281;48.878;9.394;2023-07-30T01:33:04;20.10;99.90
10468;DHT22;5281;48.878;9.394;2023-07-30T01:35:32;20.10;99.90
10468;DHT22;5281;48.878;9.394;2023-07-30T01:37:58;20.20;99.90
10468;DHT22;5281;48.878;9.394;2023-07-30T01:40:29;20.20;99.90
10468;DHT22;5281;48.878;9.394;2023-07-30T01:42:56;20.20;99.90
10468;DHT22;5281;48.878;9.394;2023-07-30T01:45:22;20.20;99.90
10468;DHT22;5281;48.878;9.394;2023-07-30T01:47:49;20.30;99.90
10468;DHT22;5281;48.878;9.394;2023-07-30T01:50:16;20.20;99.90
10468;DHT22;5281;48.878;9.394;2023-07-30T01:52:42;20.20;99.90
10468;DHT22;5281;48.878;9.394;2023-07-30T01:55:10;20.10;99.90
10468;DHT22;5281;48.878;9.394;2023-07-30T01:57:38;20.00;99.90
10468;DHT22;5281;48.878;9.394;2023-07-30T02:00:06;20.00;99.90
10468;DHT22;5281;48.878;9.394;2023-07-30T02:02:32;19.90;99.90
10468;DHT22;5281;48.878;9.394;2023-07-30T02:05:00;19.90;99.90
10468;DHT22;5281;48.878;9.394;2023-07-30T02:07:27;19.90;99.90
10468;DHT22;5281;48.878;9.394;2023-07-30T02:09:54;20.00;99.90
10468;DHT22;5281;48.878;9.394;2023-07-30T02:12:21;19.90;99.90
10468;DHT22;5281;48.878;9.394;2023-07-30T02:14:49;19.90;99.90
10468;DHT22;5281;48.878;9.394;2023-07-30T02:17:15;19.90;99.90
10468;DHT22;5281;48.878;9.394;2023-07-30T02:19:42;19.70;99.90
10468;DHT22;5281;48.878;9.394;2023-07-30T02:22:09;19.60;99.90
10468;DHT22;5281;48.878;9.394;2023-07-30T02:24:36;19.50;99.90
10468;DHT22;5281;48.878;9.394;2023-07-30T02:27:03;19.50;99.90
10468;DHT22;5281;48.878;9.394;2023-07-30T02:29:30;19.50;99.90
10468;DHT22;5281;48.878;9.394;2023-07-30T02:31:58;19.50;99.90
10468;DHT22;5281;48.878;9.394;2023-07-30T02:34:25;19.50;99.90
10468;DHT22;5281;48.878;9.394;2023-07-30T02:36:52;19.50;99.90
10468;DHT22;5281;48.878;9.394;2023-07-30T02:39:18;19.40;99.90
10468;DHT22;5281;48.878;9.394;2023-07-30T02:41:45;19.40;99.90
10468;DHT22;5281;48.878;9.394;2023-07-30T02:44:12;19.10;99.90
10468;DHT22;5281;48.878;9.394;2023-07-30T02:46:39;19.10;99.90
10468;DHT22;5281;48.878;9.394;2023-07-30T02:49:07;19.00;99.90
10468;DHT22;5281;48.878;9.394;2023-07-30T02:51:34;18.90;99.90
10468;DHT22;5281;48.878;9.394;2023-07-30T02:54:04;18.90;99.90
10468;DHT22;5281;48.878;9.394;2023-07-30T02:56:32;18.90;99.90
10468;DHT22;5281;48.878;9.394;2023-07-30T02:58:59;18.90;99.90
10468;DHT22;5281;48.878;9.394;2023-07-30T03:01:26;18.80;99.90
10468;DHT22;5281;48.878;9.394;2023-07-30T03:03:52;18.90;99.90
10468;DHT22;5281;48.878;9.394;2023-07-30T03:06:20;19.00;99.90
10468;DHT22;5281;48.878;9.394;2023-07-30T03:08:47;19.10;99.90
10468;DHT22;5281;48.878;9.394;2023-07-30T03:11:14;19.20;99.90
10468;DHT22;5281;48.878;9.394;2023-07-30T03:13:40;19.20;99.90
10468;DHT22;5281;48.878;9.394;2023-07-30T03:16:07;19.30;99.90
10468;DHT22;5281;48.878;9.394;2023-07-30T03:18:34;19.30;99.90
10468;DHT22;5281;48.878;9.394;2023-07-30T03:21:01;19.30;99.90
10468;DHT22;5281;48.878;9.394;2023-07-30T03:23:29;19.30;99.90
10468;DHT22;5281;48.878;9.394;2023-07-30T03:25:57;19.30;99.90
10468;DHT22;5281;48.878;9.394;2023-07-30T03:28:25;19.40;99.90
10468;DHT22;5281;48.878;9.394;2023-07-30T03:30:52;19.40;99.90
10468;DHT22;5281;48.878;9.394;2023-07-30T03:33:18;19.40;99.90
10468;DHT22;5281;48.878;9.394;2023-07-30T03:35:45;19.50;99.90
10468;DHT22;5281;48.878;9.394;2023-07-30T03:38:12;19.60;99.90
10468;DHT22;5281;48.878;9.394;2023-07-30T03:40:40;19.60;99.90
10468;DHT22;5281;48.878;9.394;2023-07-30T03:43:06;19.60;99.90
10468;DHT22;5281;48.878;9.394;2023-07-30T03:45:33;19.50;99.90
10468;DHT22;5281;48.878;9.394;2023-07-30T03:48:00;19.40;99.90
10468;DHT22;5281;48.878;9.394;2023-07-30T03:50:26;19.40;99.90
10468;DHT22;5281;48.878;9.394;2023-07-30T03:52:53;19.50;99.90
10468;DHT22;5281;48.878;9.394;2023-07-30T03:55:20;19.50;99.90
10468;DHT22;5281;48.878;9.394;2023-07-30T03:57:48;19.50;99.90
10468;DHT22;5281;48.878;9.394;2023-07-30T04:00:15;19.50;99.90
10468;DHT22;5281;48.878;9.394;2023-07-30T04:02:41;19.50;99.90
10468;DHT22;5281;48.878;9.394;2023-07-30T04:05:08;19.60;99.90
10468;DHT22;5281;48.878;9.394;2023-07-30T04:07:35;19.50;99.90
10468;DHT22;5281;48.878;9.394;2023-07-30T04:10:02;19.60;99.90
10468;DHT22;5281;48.878;9.394;2023-07-30T04:12:28;19.50;99.90
10468;DHT22;5281;48.878;9.394;2023-07-30T04:14:56;19.60;99.90
10468;DHT22;5281;48.878;9.394;2023-07-30T04:17:23;19.60;99.90
10468;DHT22;5281;48.878;9.394;2023-07-30T04:19:50;19.70;99.90
10468;DHT22;5281;48.878;9.394;2023-07-30T04:22:16;19.80;99.90
10468;DHT22;5281;48.878;9.394;2023-07-30T04:24:43;19.80;99.90
10468;DHT22;5281;48.878;9.394;2023-07-30T04:27:10;19.90;99.90
10468;DHT22;5281;48.878;9.394;2023-07-30T04:29:36;20.00;99.90
10468;DHT22;5281;48.878;9.394;2023-07-30T04:32:06;20.00;99.90
10468;DHT22;5281;48.878;9.394;2023-07-30T04:34:33;20.10;99.90
10468;DHT22;5281;48.878;9.394;2023-07-30T04:36:59;20.10;99.90
10468;DHT22;5281;48.878;9.394;2023-07-30T04:39:27;20.20;99.90
10468;DHT22;5281;48.878;9.394;2023-07-30T04:41:54;20.20;99.90
10468;DHT22;5281;48.878;9.394;2023-07-30T04:44:20;20.20;99.90
10468;DHT22;5281;48.878;9.394;2023-07-30T04:46:47;20.30;99.90
10468;DHT22;5281;48.878;9.394;2023-07-30T04:49:15;20.40;99.90
10468;DHT22;5281;48.878;9.394;2023-07-30T04:51:42;20.50;99.90
10468;DHT22;5281;48.878;9.394;2023-07-30T04:54:09;20.60;99.90
10468;DHT22;5281;48.878;9.394;2023-07-30T04:56:35;20.60;99.90
10468;DHT22;5281;48.878;9.394;2023-07-30T04:59:02;20.60;99.90
10468;DHT22;5281;48.878;9.394;2023-07-30T05:01:29;20.60;99.90
10468;DHT22;5281;48.878;9.394;2023-07-30T05:03:57;20.60;99.90
10468;DHT22;5281;48.878;9.394;2023-07-30T05:06:25;20.60;99.90
10468;DHT22;5281;48.878;9.394;2023-07-30T05:08:52;20.60;99.90
10468;DHT22;5281;48.878;9.394;2023-07-30T05:11:18;20.70;99.90
10468;DHT22;5281;48.878;9.394;2023-07-30T05:13:45;20.70;99.90
10468;DHT22;5281;48.878;9.394;2023-07-30T05:16:12;20.70;99.90
10468;DHT22;5281;48.878;9.394;2023-07-30T05:18:38;20.90;99.90
10468;DHT22;5281;48.878;9.394;2023-07-30T05:21:05;20.90;99.90
10468;DHT22;5281;48.878;9.394;2023-07-30T05:23:33;21.00;99.90
10468;DHT22;5281;48.878;9.394;2023-07-30T05:26:00;21.00;99.90
10468;DHT22;5281;48.878;9.394;2023-07-30T05:28:26;21.10;99.90
10468;DHT22;5281;48.878;9.394;2023-07-30T05:30:53;21.10;99.90
10468;DHT22;5281;48.878;9.394;2023-07-30T05:33:20;21.00;99.90
10468;DHT22;5281;48.878;9.394;2023-07-30T05:35:46;21.10;99.90
10468;DHT22;5281;48.878;9.394;2023-07-30T05:38:13;21.10;99.90
10468;DHT22;5281;48.878;9.394;2023-07-30T05:40:42;21.00;99.90
10468;DHT22;5281;48.878;9.394;2023-07-30T05:43:08;21.00;99.90
10468;DHT22;5281;48.878;9.394;2023-07-30T05:45:35;21.00;99.90
10468;DHT22;5281;48.878;9.394;2023-07-30T05:48:02;20.90;99.90
10468;DHT22;5281;48.878;9.394;2023-07-30T05:50:29;20.80;99.90
10468;DHT22;5281;48.878;9.394;2023-07-30T05:52:55;20.80;99.90
10468;DHT22;5281;48.878;9.394;2023-07-30T05:55:22;20.90;99.90
10468;DHT22;5281;48.878;9.394;2023-07-30T05:57:50;20.90;99.90
10468;DHT22;5281;48.878;9.394;2023-07-30T06:00:19;21.00;99.90
10468;DHT22;5281;48.878;9.394;2023-07-30T06:02:45;21.10;99.90
10468;DHT22;5281;48.878;9.394;2023-07-30T06:05:12;21.20;99.90
10468;DHT22;5281;48.878;9.394;2023-07-30T06:07:39;21.20;99.90
10468;DHT22;5281;48.878;9.394;2023-07-30T06:10:06;21.20;99.90
10468;DHT22;5281;48.878;9.394;2023-07-30T06:12:33;21.20;99.90
10468;DHT22;5281;48.878;9.394;2023-07-30T06:15:01;21.30;99.90
10468;DHT22;5281;48.878;9.394;2023-07-30T06:17:28;21.30;99.90
10468;DHT22;5281;48.878;9.394;2023-07-30T06:19:55;21.40;99.90
10468;DHT22;5281;48.878;9.394;2023-07-30T06:22:21;21.40;99.90
10468;DHT22;5281;48.878;9.394;2023-07-30T06:24:48;21.60;99.90
10468;DHT22;5281;48.878;9.394;2023-07-30T06:27:15;21.90;99.90
10468;DHT22;5281;48.878;9.394;2023-07-30T06:32:09;22.20;99.90
10468;DHT22;5281;48.878;9.394;2023-07-30T06:34:36;22.40;99.90
10468;DHT22;5281;48.878;9.394;2023-07-30T06:37:03;22.60;99.90
10468;DHT22;5281;48.878;9.394;2023-07-30T06:39:30;22.90;99.90
10468;DHT22;5281;48.878;9.394;2023-07-30T06:41:56;23.10;99.90
10468;DHT22;5281;48.878;9.394;2023-07-30T06:44:23;23.10;99.90
10468;DHT22;5281;48.878;9.394;2023-07-30T06:46:51;23.30;99.90
10468;DHT22;5281;48.878;9.394;2023-07-30T06:49:19;23.60;99.90
10468;DHT22;5281;48.878;9.394;2023-07-30T06:51:46;23.90;99.90
10468;DHT22;5281;48.878;9.394;2023-07-30T06:54:12;24.00;99.90
10468;DHT22;5281;48.878;9.394;2023-07-30T06:56:39;24.90;99.90
10468;DHT22;5281;48.878;9.394;2023-07-30T06:59:06;26.50;99.90
10468;DHT22;5281;48.878;9.394;2023-07-30T07:01:32;27.60;99.90
10468;DHT22;5281;48.878;9.394;2023-07-30T07:03:59;29.10;99.90
10468;DHT22;5281;48.878;9.394;2023-07-30T07:06:27;30.40;99.90
10468;DHT22;5281;48.878;9.394;2023-07-30T07:08:54;30.90;99.90
10468;DHT22;5281;48.878;9.394;2023-07-30T07:11:20;30.90;99.90
10468;DHT22;5281;48.878;9.394;2023-07-30T07:13:47;30.80;99.90
10468;DHT22;5281;48.878;9.394;2023-07-30T07:16:14;30.80;99.90
10468;DHT22;5281;48.878;9.394;2023-07-30T07:18:40;30.50;99.90
10468;DHT22;5281;48.878;9.394;2023-07-30T07:21:07;29.80;99.90
10468;DHT22;5281;48.878;9.394;2023-07-30T07:23:35;29.10;99.90
10468;DHT22;5281;48.878;9.394;2023-07-30T07:26:02;28.50;99.90
10468;DHT22;5281;48.878;9.394;2023-07-30T07:28:29;27.90;99.90
10468;DHT22;5281;48.878;9.394;2023-07-30T07:30:56;27.40;99.90
10468;DHT22;5281;48.878;9.394;2023-07-30T07:33:22;26.80;99.90
10468;DHT22;5281;48.878;9.394;2023-07-30T07:35:49;26.10;99.90
10468;DHT22;5281;48.878;9.394;2023-07-30T07:38:16;25.70;99.90
10468;DHT22;5281;48.878;9.394;2023-07-30T07:40:44;25.40;99.90
10468;DHT22;5281;48.878;9.394;2023-07-30T07:43:10;25.00;99.90
10468;DHT22;5281;48.878;9.394;2023-07-30T07:45:37;24.80;99.90
10468;DHT22;5281;48.878;9.394;2023-07-30T07:48:04;24.60;99.90
10468;DHT22;5281;48.878;9.394;2023-07-30T07:50:31;24.40;99.90
10468;DHT22;5281;48.878;9.394;2023-07-30T07:52:57;24.30;99.90
10468;DHT22;5281;48.878;9.394;2023-07-30T07:55:24;24.20;99.90
10468;DHT22;5281;48.878;9.394;2023-07-30T07:57:52;24.10;99.90
10468;DHT22;5281;48.878;9.394;2023-07-30T08:00:19;24.00;99.90
10468;DHT22;5281;48.878;9.394;2023-07-30T08:02:46;23.70;99.90
10468;DHT22;5281;48.878;9.394;2023-07-30T08:05:13;23.50;99.90
10468;DHT22;5281;48.878;9.394;2023-07-30T08:07:40;23.10;99.90
10468;DHT22;5281;48.878;9.394;2023-07-30T08:10:07;22.60;99.90
10468;DHT22;5281;48.878;9.394;2023-07-30T08:12:34;22.30;99.90
10468;DHT22;5281;48.878;9.394;2023-07-30T08:15:02;22.20;99.90
10468;DHT22;5281;48.878;9.394;2023-07-30T08:17:29;22.10;99.90
10468;DHT22;5281;48.878;9.394;2023-07-30T08:19:56;22.10;99.90
10468;DHT22;5281;48.878;9.394;2023-07-30T08:22:23;22.40;99.90
10468;DHT22;5281;48.878;9.394;2023-07-30T08:24:50;22.90;99.90
10468;DHT22;5281;48.878;9.394;2023-07-30T08:27:16;23.20;99.90
10468;DHT22;5281;48.878;9.394;2023-07-30T08:29:43;23.50;99.90
10468;DHT22;5281;48.878;9.394;2023-07-30T08:32:11;23.80;99.90
10468;DHT22;5281;48.878;9.394;2023-07-30T08:34:38;24.20;99.90
10468;DHT22;5281;48.878;9.394;2023-07-30T08:37:05;24.50;99.90
10468;DHT22;5281;48.878;9.394;2023-07-30T08:39:32;24.70;99.90
10468;DHT22;5281;48.878;9.394;2023-07-30T08:41:58;24.70;99.90
10468;DHT22;5281;48.878;9.394;2023-07-30T08:44:25;24.80;99.90
10468;DHT22;5281;48.878;9.394;2023-07-30T08:46:52;25.00;99.90
10468;DHT22;5281;48.878;9.394;2023-07-30T08:49:20;25.40;99.90
10468;DHT22;5281;48.878;9.394;2023-07-30T08:51:48;25.90;99.90
10468;DHT22;5281;48.878;9.394;2023-07-30T08:54:20;26.20;99.90
10468;DHT22;5281;48.878;9.394;2023-07-30T08:56:47;26.30;99.90
10468;DHT22;5281;48.878;9.394;2023-07-30T08:59:15;26.30;99.90
10468;DHT22;5281;48.878;9.394;2023-07-30T09:01:44;26.30;99.90
10468;DHT22;5281;48.878;9.394;2023-07-30T09:04:11;25.90;99.90
10468;DHT22;5281;48.878;9.394;2023-07-30T09:06:40;25.90;99.90
10468;DHT22;5281;48.878;9.394;2023-07-30T09:09:09;26.00;99.90
10468;DHT22;5281;48.878;9.394;2023-07-30T09:11:36;26.20;99.90
10468;DHT22;5281;48.878;9.394;2023-07-30T09:14:03;26.20;99.90
10468;DHT22;5281;48.878;9.394;2023-07-30T09:16:29;26.20;99.90
10468;DHT22;5281;48.878;9.394;2023-07-30T09:18:56;26.40;99.90
10468;DHT22;5281;48.878;9.394;2023-07-30T09:21:29;26.60;99.90
10468;DHT22;5281;48.878;9.394;2023-07-30T09:23:58;26.70;99.90
10468;DHT22;5281;48.878;9.394;2023-07-30T09:26:39;26.90;99.90
10468;DHT22;5281;48.878;9.394;2023-07-30T09:29:07;26.90;99.90
10468;DHT22;5281;48.878;9.394;2023-07-30T09:31:43;26.70;99.90
10468;DHT22;5281;48.878;9.394;2023-07-30T09:34:15;26.30;99.90
10468;DHT22;5281;48.878;9.394;2023-07-30T09:36:43;26.10;99.90
10468;DHT22;5281;48.878;9.394;2023-07-30T09:39:16;26.10;99.90
10468;DHT22;5281;48.878;9.394;2023-07-30T09:41:44;26.30;99.90
10468;DHT22;5281;48.878;9.394;2023-07-30T09:44:11;26.40;99.90
10468;DHT22;5281;48.878;9.394;2023-07-30T09:46:42;26.70;99.90
10468;DHT22;5281;48.878;9.394;2023-07-30T09:49:09;26.70;99.90
10468;DHT22;5281;48.878;9.394;2023-07-30T09:51:36;26.60;99.90
10468;DHT22;5281;48.878;9.394;2023-07-30T09:54:03;26.60;99.90
10468;DHT22;5281;48.878;9.394;2023-07-30T09:56:33;26.80;99.90
10468;DHT22;5281;48.878;9.394;2023-07-30T09:59:00;26.80;99.90
10468;DHT22;5281;48.878;9.394;2023-07-30T10:01:28;26.80;99.90
10468;DHT22;5281;48.878;9.394;2023-07-30T10:03:57;27.10;99.90
10468;DHT22;5281;48.878;9.394;2023-07-30T10:06:25;27.30;99.90
10468;DHT22;5281;48.878;9.394;2023-07-30T10:08:57;27.10;99.90
10468;DHT22;5281;48.878;9.394;2023-07-30T10:11:26;27.00;99.90
10468;DHT22;5281;48.878;9.394;2023-07-30T10:13:55;26.70;99.90
10468;DHT22;5281;48.878;9.394;2023-07-30T10:16:25;26.50;99.90
10468;DHT22;5281;48.878;9.394;2023-07-30T10:18:56;26.30;99.90
10468;DHT22;5281;48.878;9.394;2023-07-30T10:21:25;26.00;99.90
10468;DHT22;5281;48.878;9.394;2023-07-30T10:23:59;25.70;99.90
10468;DHT22;5281;48.878;9.394;2023-07-30T10:26:29;25.80;99.90
10468;DHT22;5281;48.878;9.394;2023-07-30T10:29:15;25.90;99.90
10468;DHT22;5281;48.878;9.394;2023-07-30T10:31:43;26.00;99.90
10468;DHT22;5281;48.878;9.394;2023-07-30T10:34:10;26.30;99.90
10468;DHT22;5281;48.878;9.394;2023-07-30T10:36:42;26.40;99.90
10468;DHT22;5281;48.878;9.394;2023-07-30T10:39:14;26.80;99.90
10468;DHT22;5281;48.878;9.394;2023-07-30T10:41:44;27.00;99.90
10468;DHT22;5281;48.878;9.394;2023-07-30T10:44:26;27.00;99.90
10468;DHT22;5281;48.878;9.394;2023-07-30T10:46:54;26.80;99.90
10468;DHT22;5281;48.878;9.394;2023-07-30T10:49:21;26.90;99.90
10468;DHT22;5281;48.878;9.394;2023-07-30T10:51:48;27.00;99.90
10468;DHT22;5281;48.878;9.394;2023-07-30T10:54:14;27.10;99.90
10468;DHT22;5281;48.878;9.394;2023-07-30T10:56:42;26.90;99.90
10468;DHT22;5281;48.878;9.394;2023-07-30T10:59:10;26.60;99.90
10468;DHT22;5281;48.878;9.394;2023-07-30T11:01:39;26.50;99.90
10468;DHT22;5281;48.878;9.394;2023-07-30T11:04:07;26.30;99.90
10468;DHT22;5281;48.878;9.394;2023-07-30T11:06:34;26.30;99.90
10468;DHT22;5281;48.878;9.394;2023-07-30T11:09:01;26.30;99.90
10468;DHT22;5281;48.878;9.394;2023-07-30T11:11:28;26.40;99.90
10468;DHT22;5281;48.878;9.394;2023-07-30T11:13:55;26.40;99.90
10468;DHT22;5281;48.878;9.394;2023-07-30T11:16:23;26.40;99.90
10468;DHT22;5281;48.878;9.394;2023-07-30T11:18:51;26.40;99.90
10468;DHT22;5281;48.878;9.394;2023-07-30T11:21:18;26.60;99.90
10468;DHT22;5281;48.878;9.394;2023-07-30T11:23:45;26.60;99.90
10468;DHT22;5281;48.878;9.394;2023-07-30T11:26:14;26.80;99.90
10468;DHT22;5281;48.878;9.394;2023-07-30T11:28:41;27.00;99.90
10468;DHT22;5281;48.878;9.394;2023-07-30T11:31:09;27.20;99.90
10468;DHT22;5281;48.878;9.394;2023-07-30T11:33:39;27.20;99.90
10468;DHT22;5281;48.878;9.394;2023-07-30T11:36:10;26.90;99.90
10468;DHT22;5281;48.878;9.394;2023-07-30T11:38:38;26.30;99.90
10468;DHT22;5281;48.878;9.394;2023-07-30T11:41:05;25.80;99.90
10468;DHT22;5281;48.878;9.394;2023-07-30T11:43:36;25.40;99.90
10468;DHT22;5281;48.878;9.394;2023-07-30T11:46:11;25.00;99.90
10468;DHT22;5281;48.878;9.394;2023-07-30T11:48:39;24.60;99.90
10468;DHT22;5281;48.878;9.394;2023-07-30T11:51:17;24.60;99.90
10468;DHT22;5281;48.878;9.394;2023-07-30T11:53:44;24.80;99.90
10468;DHT22;5281;48.878;9.394;2023-07-30T11:56:24;25.00;99.90
10468;DHT22;5281;48.878;9.394;2023-07-30T11:58:54;25.30;99.90
10468;DHT22;5281;48.878;9.394;2023-07-30T12:01:23;25.60;99.90
10468;DHT22;5281;48.878;9.394;2023-07-30T12:03:50;25.80;99.90
10468;DHT22;5281;48.878;9.394;2023-07-30T12:06:18;26.10;99.90
10468;DHT22;5281;48.878;9.394;2023-07-30T12:08:45;26.30;99.90
10468;DHT22;5281;48.878;9.394;2023-07-30T12:11:14;26.40;99.90
10468;DHT22;5281;48.878;9.394;2023-07-30T12:13:44;26.20;99.90
10468;DHT22;5281;48.878;9.394;2023-07-30T12:16:12;25.90;99.90
10468;DHT22;5281;48.878;9.394;2023-07-30T12:18:39;25.70;99.90
10468;DHT22;5281;48.878;9.394;2023-07-30T12:21:06;25.60;99.90
10468;DHT22;5281;48.878;9.394;2023-07-30T12:23:34;25.50;99.90
10468;DHT22;5281;48.878;9.394;2023-07-30T12:26:02;25.30;99.90
10468;DHT22;5281;48.878;9.394;2023-07-30T12:28:31;25.20;99.90
10468;DHT22;5281;48.878;9.394;2023-07-30T12:30:57;25.30;99.90
10468;DHT22;5281;48.878;9.394;2023-07-30T12:33:24;25.40;99.90
10468;DHT22;5281;48.878;9.394;2023-07-30T12:35:51;25.40;99.90
10468;DHT22;5281;48.878;9.394;2023-07-30T12:38:18;25.60;99.90
10468;DHT22;5281;48.878;9.394;2023-07-30T12:40:46;25.80;99.90
10468;DHT22;5281;48.878;9.394;2023-07-30T12:43:13;26.00;99.90
10468;DHT22;5281;48.878;9.394;2023-07-30T12:45:40;26.30;99.90
10468;DHT22;5281;48.878;9.394;2023-07-30T12:48:06;26.50;99.90
10468;DHT22;5281;48.878;9.394;2023-07-30T12:50:33;26.50;99.90
10468;DHT22;5281;48.878;9.394;2023-07-30T12:53:00;26.20;99.90
10468;DHT22;5281;48.878;9.394;2023-07-30T12:55:27;26.00;99.90
10468;DHT22;5281;48.878;9.394;2023-07-30T12:57:55;25.70;99.90
10468;DHT22;5281;48.878;9.394;2023-07-30T13:00:22;25.80;99.90
10468;DHT22;5281;48.878;9.394;2023-07-30T13:02:48;25.80;99.90
10468;DHT22;5281;48.878;9.394;2023-07-30T13:05:17;25.90;99.90
10468;DHT22;5281;48.878;9.394;2023-07-30T13:07:44;26.10;99.90
10468;DHT22;5281;48.878;9.394;2023-07-30T13:10:11;26.40;99.90
10468;DHT22;5281;48.878;9.394;2023-07-30T13:12:37;26.50;99.90
10468;DHT22;5281;48.878;9.394;2023-07-30T13:15:07;26.70;99.90
10468;DHT22;5281;48.878;9.394;2023-07-30T13:17:34;26.90;99.90
10468;DHT22;5281;48.878;9.394;2023-07-30T13:20:00;26.80;99.90
10468;DHT22;5281;48.878;9.394;2023-07-30T13:22:27;26.80;99.90
10468;DHT22;5281;48.878;9.394;2023-07-30T13:24:54;26.50;99.90
10468;DHT22;5281;48.878;9.394;2023-07-30T13:27:21;26.20;99.90
10468;DHT22;5281;48.878;9.394;2023-07-30T13:29:47;26.00;99.90
10468;DHT22;5281;48.878;9.394;2023-07-30T13:32:15;25.80;99.90
10468;DHT22;5281;48.878;9.394;2023-07-30T13:34:42;25.80;99.90
10468;DHT22;5281;48.878;9.394;2023-07-30T13:37:09;25.70;99.90
10468;DHT22;5281;48.878;9.394;2023-07-30T13:39:36;25.70;99.90
10468;DHT22;5281;48.878;9.394;2023-07-30T13:42:04;25.80;99.90
10468;DHT22;5281;48.878;9.394;2023-07-30T13:44:30;25.80;99.90
10468;DHT22;5281;48.878;9.394;2023-07-30T13:46:57;25.70;99.90
10468;DHT22;5281;48.878;9.394;2023-07-30T13:49:25;25.70;99.90
10468;DHT22;5281;48.878;9.394;2023-07-30T13:51:52;25.90;99.90
10468;DHT22;5281;48.878;9.394;2023-07-30T13:54:18;26.20;99.90
10468;DHT22;5281;48.878;9.394;2023-07-30T13:56:45;26.40;99.90
10468;DHT22;5281;48.878;9.394;2023-07-30T13:59:12;26.40;99.90
10468;DHT22;5281;48.878;9.394;2023-07-30T14:01:38;26.50;99.30
10468;DHT22;5281;48.878;9.394;2023-07-30T14:04:05;26.70;98.40
10468;DHT22;5281;48.878;9.394;2023-07-30T14:06:33;26.80;97.80
10468;DHT22;5281;48.878;9.394;2023-07-30T14:09:00;26.80;98.50
10468;DHT22;5281;48.878;9.394;2023-07-30T14:11:27;26.80;99.10
10468;DHT22;5281;48.878;9.394;2023-07-30T14:13:54;26.50;99.10
10468;DHT22;5281;48.878;9.394;2023-07-30T14:16:21;26.40;99.50
10468;DHT22;5281;48.878;9.394;2023-07-30T14:18:48;26.30;99.80
10468;DHT22;5281;48.878;9.394;2023-07-30T14:21:14;26.50;99.90
10468;DHT22;5281;48.878;9.394;2023-07-30T14:23:42;26.50;99.90
10468;DHT22;5281;48.878;9.394;2023-07-30T14:26:09;26.40;99.90
10468;DHT22;5281;48.878;9.394;2023-07-30T14:28:36;26.40;99.70
10468;DHT22;5281;48.878;9.394;2023-07-30T14:31:03;26.50;99.60
10468;DHT22;5281;48.878;9.394;2023-07-30T14:33:29;26.60;99.30
10468;DHT22;5281;48.878;9.394;2023-07-30T14:35:56;26.50;99.10
10468;DHT22;5281;48.878;9.394;2023-07-30T14:38:23;26.40;99.20
10468;DHT22;5281;48.878;9.394;2023-07-30T14:40:51;26.30;99.10
10468;DHT22;5281;48.878;9.394;2023-07-30T14:43:17;26.20;98.90
10468;DHT22;5281;48.878;9.394;2023-07-30T14:45:44;26.10;99.60
10468;DHT22;5281;48.878;9.394;2023-07-30T14:48:11;26.00;99.60
10468;DHT22;5281;48.878;9.394;2023-07-30T14:50:37;25.90;99.30
10468;DHT22;5281;48.878;9.394;2023-07-30T14:53:04;25.90;99.60
10468;DHT22;5281;48.878;9.394;2023-07-30T14:55:31;25.90;99.10
10468;DHT22;5281;48.878;9.394;2023-07-30T14:57:59;25.90;99.00
10468;DHT22;5281;48.878;9.394;2023-07-30T15:00:27;25.80;98.20
10468;DHT22;5281;48.878;9.394;2023-07-30T15:02:53;25.90;99.10
10468;DHT22;5281;48.878;9.394;2023-07-30T15:05:20;25.90;99.50
10468;DHT22;5281;48.878;9.394;2023-07-30T15:07:47;25.70;99.40
10468;DHT22;5281;48.878;9.394;2023-07-30T15:10:13;25.70;99.40
10468;DHT22;5281;48.878;9.394;2023-07-30T15:12:42;25.70;97.50
10468;DHT22;5281;48.878;9.394;2023-07-30T15:15:10;25.80;98.90
10468;DHT22;5281;48.878;9.394;2023-07-30T15:17:37;25.90;98.60
10468;DHT22;5281;48.878;9.394;2023-07-30T15:20:04;26.00;98.40
10468;DHT22;5281;48.878;9.394;2023-07-30T15:22:31;25.80;98.40
10468;DHT22;5281;48.878;9.394;2023-07-30T15:24:58;25.70;97.40
10468;DHT22;5281;48.878;9.394;2023-07-30T15:27:25;25.50;97.20
10468;DHT22;5281;48.878;9.394;2023-07-30T15:29:51;25.30;97.80
10468;DHT22;5281;48.878;9.394;2023-07-30T15:32:19;25.00;96.40
10468;DHT22;5281;48.878;9.394;2023-07-30T15:34:46;25.00;96.00
10468;DHT22;5281;48.878;9.394;2023-07-30T15:37:13;24.90;95.70
10468;DHT22;5281;48.878;9.394;2023-07-30T15:39:39;24.90;95.10
10468;DHT22;5281;48.878;9.394;2023-07-30T15:42:06;24.80;95.50
10468;DHT22;5281;48.878;9.394;2023-07-30T15:44:33;24.80;95.50
10468;DHT22;5281;48.878;9.394;2023-07-30T15:47:00;24.70;95.30
10468;DHT22;5281;48.878;9.394;2023-07-30T15:49:28;24.70;95.40